Time;durP1;ratioP1;P1;durP2;ratioP2;P2;SDS_P1;SDS_P2;PMS_P1;PMS_P2;Temp;Humidity;BMP_temperature;BMP_pressure;BME280_temperature;BME280_humidity;BME280_pressure;Samples;Min_cycle;Max_cycle;Signal;HPM_P1;HPM_P2
2024/02/03 00:04:53;;;;;;;0.37;0.37;;;7.30;96.80;;;;;;10397111;28;20219;-77
2024/02/03 00:09:56;;;;;;;0.40;0.40;;;7.30;97.00;;;;;;10398768;28;20249;-78
2024/02/03 00:15:00;;;;;;;0.40;0.40;;;7.30;96.90;;;;;;10402814;28;20287;-78
2024/02/03 00:20:03;;;;;;;0.40;0.40;;;7.20;97.10;;;;;;10400619;28;20245;-78
2024/02/03 00:25:06;;;;;;;0.40;0.40;;;7.10;97.20;;;;;;10396991;28;20221;-75
2024/02/03 00:30:10;;;;;;;0.40;0.40;;;7.10;97.00;;;;;;10398868;28;20253;-77
2024/02/03 00:35:13;;;;;;;0.30;0.30;;;7.00;97.30;;;;;;10398965;28;20219;-77
2024/02/03 00:40:16;;;;;;;0.30;0.30;;;6.90;97.40;;;;;;10401722;28;20198;-77
2024/02/03 00:45:19;;;;;;;0.30;0.30;;;6.90;97.60;;;;;;10393992;28;20282;-77
2024/02/03 00:50:22;;;;;;;0.40;0.40;;;6.90;97.70;;;;;;10420356;28;20240;-79
2024/02/03 00:55:24;;;;;;;0.40;0.40;;;6.90;97.50;;;;;;10414795;28;20632;-77
2024/02/03 01:00:28;;;;;;;0.30;0.30;;;6.90;97.30;;;;;;10419066;28;20196;-77
2024/02/03 01:05:31;;;;;;;0.30;0.30;;;6.90;97.30;;;;;;10423745;28;20217;-78
2024/02/03 01:10:33;;;;;;;0.30;0.30;;;6.80;97.20;;;;;;10416993;28;20228;-76
2024/02/03 01:15:37;;;;;;;0.30;0.30;;;6.80;97.30;;;;;;10415755;28;20232;-78
2024/02/03 01:20:40;;;;;;;0.30;0.30;;;6.80;97.70;;;;;;10415657;28;20753;-78
2024/02/03 01:25:43;;;;;;;0.30;0.30;;;6.90;97.20;;;;;;10414199;28;20221;-78
2024/02/03 01:30:47;;;;;;;0.30;0.30;;;6.90;97.20;;;;;;10414051;28;20225;-78
2024/02/03 01:35:49;;;;;;;0.40;0.40;;;6.90;97.20;;;;;;10410014;28;20571;-77
2024/02/03 01:40:51;;;;;;;0.40;0.40;;;6.80;97.30;;;;;;10410628;28;20193;-77
2024/02/03 01:45:56;;;;;;;0.40;0.40;;;6.80;97.40;;;;;;10409663;28;20217;-77
2024/02/03 01:51:02;;;;;;;0.43;0.43;;;6.80;97.50;;;;;;10407562;28;20622;-77
2024/02/03 01:56:05;;;;;;;0.40;0.40;;;6.70;97.50;;;;;;10406061;28;20240;-77
2024/02/03 02:01:11;;;;;;;0.40;0.40;;;6.50;97.50;;;;;;10398844;28;20554;-77
2024/02/03 02:06:13;;;;;;;0.40;0.40;;;6.50;97.90;;;;;;10401708;28;20221;-78
2024/02/03 02:11:16;;;;;;;0.57;0.57;;;6.50;97.70;;;;;;10402480;28;20228;-76
2024/02/03 02:16:20;;;;;;;0.40;0.40;;;6.50;97.90;;;;;;10401468;28;20220;-77
2024/02/03 02:21:24;;;;;;;0.40;0.40;;;6.40;97.90;;;;;;10404926;28;20185;-78
2024/02/03 02:26:26;;;;;;;0.50;0.50;;;6.30;98.00;;;;;;10410216;28;20271;-78
2024/02/03 02:31:29;;;;;;;0.40;0.40;;;6.30;98.10;;;;;;10416119;28;20394;-77
2024/02/03 02:36:32;;;;;;;0.40;0.40;;;6.30;98.20;;;;;;10415149;28;20217;-78
2024/02/03 02:41:36;;;;;;;0.40;0.40;;;6.30;98.20;;;;;;10409502;28;20239;-77
2024/02/03 02:46:38;;;;;;;0.40;0.40;;;6.30;98.30;;;;;;10405386;28;20213;-77
2024/02/03 02:51:42;;;;;;;0.40;0.40;;;6.30;98.30;;;;;;10405268;28;20267;-76
2024/02/03 02:56:45;;;;;;;0.40;0.40;;;6.30;98.50;;;;;;10403763;28;20213;-77
2024/02/03 03:01:47;;;;;;;0.40;0.40;;;6.30;98.60;;;;;;10403188;28;20205;-77
2024/02/03 03:06:51;;;;;;;0.40;0.40;;;6.20;98.50;;;;;;10426742;28;20221;-78
2024/02/03 03:11:53;;;;;;;0.40;0.40;;;6.30;98.80;;;;;;10398156;28;20706;-78
2024/02/03 03:16:56;;;;;;;0.37;0.37;;;6.30;98.70;;;;;;10399856;28;20302;-77
2024/02/03 03:21:59;;;;;;;0.40;0.40;;;6.20;98.70;;;;;;10397895;28;20239;-77
2024/02/03 03:27:02;;;;;;;0.43;0.43;;;6.20;98.80;;;;;;10394743;28;20213;-77
2024/02/03 03:32:05;;;;;;;0.40;0.40;;;6.20;98.80;;;;;;10395876;28;20216;-78
2024/02/03 03:37:09;;;;;;;0.40;0.40;;;6.20;98.70;;;;;;10393451;28;20209;-77
2024/02/03 03:42:11;;;;;;;0.53;0.53;;;6.10;98.90;;;;;;10394632;28;20198;-78
2024/02/03 03:47:13;;;;;;;0.40;0.40;;;6.10;99.00;;;;;;10392795;28;20621;-77
2024/02/03 03:52:17;;;;;;;0.40;0.40;;;6.00;99.00;;;;;;10391596;28;20213;-78
2024/02/03 03:57:19;;;;;;;0.50;0.50;;;6.00;99.10;;;;;;10391164;28;20206;-77
2024/02/03 04:02:22;;;;;;;0.30;0.30;;;6.00;98.90;;;;;;10389446;28;20202;-77
2024/02/03 04:07:25;;;;;;;0.60;0.60;;;6.00;99.10;;;;;;10388808;28;20214;-77
2024/02/03 04:12:28;;;;;;;0.60;0.60;;;5.90;99.20;;;;;;10384845;28;20280;-78
2024/02/03 04:17:30;;;;;;;0.57;0.57;;;5.90;99.30;;;;;;10468424;22;20233;-79
2024/02/03 04:22:34;;;;;;;0.57;0.57;;;5.90;99.20;;;;;;10452397;28;20206;-79
2024/02/03 04:27:36;;;;;;;0.70;0.70;;;5.80;99.10;;;;;;10450456;28;20260;-78
2024/02/03 04:32:38;;;;;;;0.50;0.50;;;5.70;99.30;;;;;;10452133;28;20855;-79
2024/02/03 04:37:43;;;;;;;0.63;0.63;;;5.80;99.40;;;;;;10451757;28;20275;-78
2024/02/03 04:42:46;;;;;;;0.60;0.60;;;5.70;99.30;;;;;;10451465;28;20198;-79
2024/02/03 04:47:48;;;;;;;0.70;0.70;;;5.70;99.40;;;;;;10453558;28;20345;-79
2024/02/03 04:52:52;;;;;;;0.60;0.60;;;5.70;99.40;;;;;;10453766;28;20220;-80
2024/02/03 04:57:54;;;;;;;0.50;0.50;;;5.70;99.70;;;;;;10452791;28;20209;-80
2024/02/03 05:02:57;;;;;;;0.60;0.60;;;5.70;99.40;;;;;;10435792;28;20193;-79
2024/02/03 05:08:01;;;;;;;0.77;0.77;;;5.60;99.30;;;;;;10452348;28;20236;-80
2024/02/03 05:13:03;;;;;;;0.60;0.60;;;5.60;99.50;;;;;;10459431;28;20221;-80
2024/02/03 05:18:06;;;;;;;0.60;0.60;;;5.60;99.50;;;;;;10461961;28;20201;-80
2024/02/03 05:23:09;;;;;;;0.50;0.50;;;5.60;99.50;;;;;;10451864;28;20189;-81
2024/02/03 05:28:15;;;;;;;0.60;0.60;;;5.50;99.50;;;;;;10432964;28;20229;-79
2024/02/03 05:33:17;;;;;;;0.63;0.63;;;5.50;99.50;;;;;;10434110;28;20263;-79
2024/02/03 05:38:21;;;;;;;0.50;0.50;;;5.50;99.60;;;;;;10451624;28;20193;-79
2024/02/03 05:43:23;;;;;;;0.60;0.60;;;5.50;99.70;;;;;;10451145;28;20247;-81
2024/02/03 05:48:30;;;;;;;0.40;0.40;;;5.50;99.80;;;;;;10433370;28;20251;-80
2024/02/03 05:53:35;;;;;;;0.50;0.50;;;5.50;99.90;;;;;;10433125;28;20225;-79
2024/02/03 05:58:38;;;;;;;0.50;0.50;;;5.50;99.80;;;;;;10450590;28;20247;-78
2024/02/03 06:03:40;;;;;;;0.50;0.50;;;5.50;99.90;;;;;;10450510;28;20213;-79
2024/02/03 06:08:44;;;;;;;0.27;0.27;;;5.50;99.90;;;;;;10449115;28;20633;-80
2024/02/03 06:13:46;;;;;;;0.60;0.60;;;5.50;99.90;;;;;;10450351;28;20286;-78
2024/02/03 06:18:49;;;;;;;0.33;0.33;;;5.50;99.90;;;;;;10451248;28;20193;-78
2024/02/03 06:23:52;;;;;;;0.60;0.60;;;5.50;99.90;;;;;;10451259;28;20236;-79
2024/02/03 06:28:55;;;;;;;0.43;0.43;;;5.50;99.90;;;;;;10450395;28;20201;-79
2024/02/03 06:33:57;;;;;;;0.50;0.50;;;5.50;99.90;;;;;;10449960;28;20644;-79
2024/02/03 06:39:01;;;;;;;0.70;0.70;;;5.50;99.90;;;;;;10449528;28;20197;-79
2024/02/03 06:44:03;;;;;;;0.57;0.57;;;5.50;99.90;;;;;;10448941;28;20224;-79
2024/02/03 06:49:05;;;;;;;0.50;0.50;;;5.50;99.90;;;;;;10450044;28;20208;-80
2024/02/03 06:54:09;;;;;;;0.60;0.60;;;5.50;99.90;;;;;;10455099;28;20710;-81
2024/02/03 06:59:19;;;;;;;0.50;0.50;;;5.50;99.90;;;;;;10453639;28;20190;-79
2024/02/03 07:04:21;;;;;;;0.40;0.40;;;5.50;99.90;;;;;;10444380;28;20223;-79
2024/02/03 07:09:25;;;;;;;0.53;0.53;;;5.50;99.90;;;;;;10454527;28;20185;-77
2024/02/03 07:14:27;;;;;;;0.40;0.40;;;5.50;99.90;;;;;;10456199;28;20279;-78
2024/02/03 07:19:30;;;;;;;0.60;0.60;;;5.50;99.90;;;;;;10455084;28;20227;-79
2024/02/03 07:24:37;;;;;;;0.30;0.30;;;5.50;99.90;;;;;;10455711;28;20248;-78
2024/02/03 07:29:41;;;;;;;0.40;0.40;;;5.50;99.90;;;;;;10454458;28;20269;-79
2024/02/03 07:34:43;;;;;;;0.50;0.50;;;5.50;99.90;;;;;;10454045;28;20756;-78
2024/02/03 07:39:47;;;;;;;0.60;0.60;;;5.50;99.90;;;;;;10435765;28;20216;-81
2024/02/03 07:44:49;;;;;;;0.50;0.50;;;5.60;99.90;;;;;;10454484;28;20209;-78
2024/02/03 07:49:51;;;;;;;0.60;0.60;;;5.60;99.90;;;;;;10453976;28;20612;-79
2024/02/03 07:54:55;;;;;;;0.37;0.37;;;5.70;99.90;;;;;;10452753;28;20240;-79
2024/02/03 07:59:57;;;;;;;0.40;0.40;;;5.90;99.90;;;;;;10453664;28;20194;-78
2024/02/03 08:05:00;;;;;;;0.50;0.50;;;6.10;99.90;;;;;;10451740;28;20629;-77
2024/02/03 08:10:04;;;;;;;0.50;0.50;;;6.30;99.90;;;;;;10456673;28;20201;-78
2024/02/03 08:15:07;;;;;;;0.50;0.50;;;6.50;99.90;;;;;;10454165;28;21135;-78
2024/02/03 08:20:10;;;;;;;0.50;0.50;;;6.80;99.90;;;;;;10449158;28;20198;-79
2024/02/03 08:25:14;;;;;;;0.50;0.50;;;7.00;99.90;;;;;;10451554;28;20217;-79
2024/02/03 08:30:17;;;;;;;0.37;0.37;;;7.10;99.90;;;;;;10433845;28;20208;-77
2024/02/03 08:35:19;;;;;;;0.30;0.30;;;7.30;99.90;;;;;;10449340;28;20216;-79
2024/02/03 08:40:23;;;;;;;0.30;0.30;;;7.50;99.90;;;;;;10446479;28;20197;-79
2024/02/03 08:45:25;;;;;;;0.40;0.40;;;7.70;99.90;;;;;;10448890;28;20209;-78
2024/02/03 08:50:28;;;;;;;0.30;0.30;;;7.90;99.90;;;;;;10451160;28;20205;-78
2024/02/03 08:55:31;;;;;;;0.40;0.40;;;8.00;99.90;;;;;;10452712;28;20698;-78
2024/02/03 09:00:34;;;;;;;0.30;0.30;;;8.10;99.90;;;;;;10450693;28;20209;-79
2024/02/03 09:05:36;;;;;;;0.40;0.40;;;8.20;99.90;;;;;;10415738;28;20294;-78
2024/02/03 09:10:40;;;;;;;0.40;0.40;;;8.40;99.90;;;;;;10431791;28;20193;-80
2024/02/03 09:15:42;;;;;;;0.40;0.40;;;8.50;99.90;;;;;;10448857;28;20220;-78
2024/02/03 09:20:45;;;;;;;0.37;0.37;;;8.50;99.90;;;;;;10449717;28;20197;-78
2024/02/03 09:25:48;;;;;;;0.20;0.20;;;8.60;99.90;;;;;;10450185;28;20286;-79
2024/02/03 09:30:51;;;;;;;0.30;0.30;;;8.70;99.90;;;;;;10448605;28;20251;-80
2024/02/03 09:35:53;;;;;;;0.40;0.40;;;8.70;99.90;;;;;;10447552;28;20224;-79
2024/02/03 09:40:57;;;;;;;0.40;0.40;;;8.80;99.90;;;;;;10449676;28;20599;-80
2024/02/03 09:46:00;;;;;;;0.40;0.40;;;8.90;99.90;;;;;;10449101;28;20217;-80
2024/02/03 09:51:02;;;;;;;0.43;0.43;;;8.90;99.90;;;;;;10452615;28;20185;-80
2024/02/03 09:56:07;;;;;;;0.40;0.40;;;9.00;99.90;;;;;;10456918;28;20219;-78
2024/02/03 10:01:09;;;;;;;0.50;0.50;;;9.00;99.90;;;;;;10449597;28;20189;-79
2024/02/03 10:06:13;;;;;;;0.27;0.27;;;9.10;99.90;;;;;;10447725;28;20209;-79
2024/02/03 10:11:18;;;;;;;0.30;0.30;;;9.20;99.90;;;;;;10447448;28;20678;-80
2024/02/03 10:16:21;;;;;;;0.40;0.40;;;9.30;99.90;;;;;;10466943;22;21690;-80
2024/02/03 10:21:25;;;;;;;0.40;0.40;;;9.50;99.90;;;;;;10440248;28;20624;-80
2024/02/03 10:26:29;;;;;;;0.43;0.43;;;9.60;99.90;;;;;;10451002;28;20209;-80
2024/02/03 10:31:31;;;;;;;0.50;0.50;;;9.70;99.90;;;;;;10435873;28;20214;-80
2024/02/03 10:36:33;;;;;;;0.40;0.40;;;9.80;99.90;;;;;;10435548;28;20233;-79
2024/02/03 10:41:41;;;;;;;0.30;0.30;;;9.90;99.90;;;;;;10438207;28;20182;-79
2024/02/03 10:46:44;;;;;;;0.37;0.37;;;10.00;99.90;;;;;;10424884;28;20225;-80
2024/02/03 10:51:49;;;;;;;0.30;0.30;;;10.10;99.90;;;;;;10443432;28;20222;-80
2024/02/03 10:56:54;;;;;;;0.40;0.40;;;10.20;99.90;;;;;;10442264;28;20276;-80
2024/02/03 11:01:56;;;;;;;0.33;0.33;;;10.30;99.90;;;;;;10442155;28;20247;-80
2024/02/03 11:07:00;;;;;;;0.10;0.10;;;10.40;99.90;;;;;;10440853;28;20220;-80
2024/02/03 11:12:12;;;;;;;0.30;0.30;;;10.50;99.90;;;;;;10441035;28;20821;-80
2024/02/03 11:17:15;;;;;;;0.40;0.40;;;10.50;99.90;;;;;;10440519;28;20237;-80
2024/02/03 11:22:19;;;;;;;0.30;0.30;;;10.60;99.90;;;;;;10441169;28;20202;-80
2024/02/03 11:27:23;;;;;;;0.40;0.40;;;10.60;99.90;;;;;;10440579;28;20255;-80
2024/02/03 11:32:25;;;;;;;0.40;0.40;;;10.80;99.90;;;;;;10440274;28;20266;-80
2024/02/03 11:37:28;;;;;;;0.40;0.40;;;10.90;99.90;;;;;;10421803;28;20222;-80
2024/02/03 11:42:33;;;;;;;0.30;0.30;;;10.90;99.90;;;;;;10440763;28;20190;-80
2024/02/03 11:47:35;;;;;;;0.40;0.40;;;11.00;99.90;;;;;;10439201;28;20232;-80
2024/02/03 11:52:45;;;;;;;0.33;0.33;;;11.00;99.90;;;;;;10438091;28;20213;-80
2024/02/03 11:57:48;;;;;;;0.30;0.30;;;11.00;99.90;;;;;;10438164;28;20210;-80
2024/02/03 12:02:51;;;;;;;0.40;0.40;;;11.10;99.90;;;;;;10435534;28;20198;-80
2024/02/03 12:07:54;;;;;;;0.30;0.30;;;11.20;99.90;;;;;;10434411;28;20214;-80
2024/02/03 12:13:01;;;;;;;0.13;0.13;;;11.10;99.90;;;;;;10442435;28;20721;-81
2024/02/03 12:18:04;;;;;;;0.30;0.30;;;11.20;99.90;;;;;;10443076;28;20253;-80
2024/02/03 12:23:07;;;;;;;0.40;0.40;;;11.30;99.90;;;;;;10436894;28;20190;-80
2024/02/03 12:28:11;;;;;;;0.40;0.40;;;11.40;99.90;;;;;;10434013;28;20229;-80
2024/02/03 12:33:14;;;;;;;0.40;0.40;;;11.50;99.90;;;;;;10432737;28;20218;-80
2024/02/03 12:38:17;;;;;;;0.30;0.30;;;11.50;99.90;;;;;;10432778;28;20280;-80
2024/02/03 12:43:21;;;;;;;0.40;0.40;;;11.60;99.90;;;;;;10431516;28;20209;-80
2024/02/03 12:48:24;;;;;;;0.20;0.20;;;11.60;99.90;;;;;;10432816;28;20222;-81
2024/02/03 12:53:28;;;;;;;0.30;0.30;;;11.70;99.90;;;;;;10442428;28;20221;-80
2024/02/03 12:58:32;;;;;;;0.40;0.40;;;11.70;99.90;;;;;;10428974;28;20222;-80
2024/02/03 13:03:34;;;;;;;0.30;0.30;;;11.70;99.90;;;;;;10427308;28;20569;-80
2024/02/03 13:08:36;;;;;;;0.20;0.20;;;11.80;99.90;;;;;;10424706;28;20205;-80
2024/02/03 13:13:40;;;;;;;0.30;0.30;;;11.80;99.90;;;;;;10407318;28;20352;-80
2024/02/03 13:18:42;;;;;;;0.37;0.37;;;11.90;99.90;;;;;;10424650;28;20583;-81
2024/02/03 13:23:45;;;;;;;0.30;0.30;;;11.90;99.90;;;;;;10408320;28;20194;-79
2024/02/03 13:28:49;;;;;;;0.40;0.40;;;11.90;99.90;;;;;;10423988;28;20202;-79
2024/02/03 13:33:52;;;;;;;0.30;0.30;;;12.00;99.90;;;;;;10422815;28;20218;-80
2024/02/03 13:38:54;;;;;;;0.30;0.30;;;12.10;99.90;;;;;;10421209;28;20696;-80
2024/02/03 13:43:58;;;;;;;0.30;0.30;;;12.20;99.90;;;;;;10423385;28;20267;-81
2024/02/03 13:49:00;;;;;;;0.30;0.30;;;12.10;99.90;;;;;;10421593;28;20202;-80
2024/02/03 13:54:03;;;;;;;0.30;0.30;;;12.10;99.90;;;;;;10409550;28;20218;-80
2024/02/03 13:59:07;;;;;;;0.30;0.30;;;12.00;99.80;;;;;;10397134;28;20256;-81
2024/02/03 14:04:09;;;;;;;0.30;0.30;;;11.90;99.70;;;;;;10384383;28;20648;-80
2024/02/03 14:09:11;;;;;;;0.30;0.30;;;11.80;99.80;;;;;;10390804;28;20201;-81
2024/02/03 14:14:15;;;;;;;0.20;0.20;;;11.70;99.90;;;;;;10403994;28;20222;-83
2024/02/03 14:19:17;;;;;;;0.20;0.20;;;11.70;99.90;;;;;;10377666;28;20209;-83
2024/02/03 14:24:20;;;;;;;0.30;0.30;;;11.60;99.90;;;;;;10400086;28;20222;-82
2024/02/03 14:29:27;;;;;;;0.30;0.30;;;11.60;99.90;;;;;;10409666;28;20235;-81
2024/02/03 14:34:29;;;;;;;0.50;0.50;;;11.60;99.90;;;;;;10457492;28;20651;-82
2024/02/03 14:39:31;;;;;;;0.50;0.50;;;11.60;99.90;;;;;;10456127;28;20193;-82
2024/02/03 14:44:37;;;;;;;0.40;0.40;;;11.50;99.90;;;;;;10463259;28;20224;-82
2024/02/03 14:49:39;;;;;;;0.40;0.40;;;11.50;99.90;;;;;;10456526;28;20201;-81
2024/02/03 14:54:42;;;;;;;0.40;0.40;;;11.50;99.90;;;;;;10441879;28;20229;-84
2024/02/03 14:59:48;;;;;;;0.40;0.40;;;11.50;99.90;;;;;;10389713;28;20718;-80
2024/02/03 15:04:50;;;;;;;0.40;0.40;;;11.50;99.90;;;;;;10412774;28;20221;-82
2024/02/03 15:09:53;;;;;;;0.43;0.43;;;11.50;99.90;;;;;;10416271;28;20208;-81
2024/02/03 15:14:59;;;;;;;0.40;0.40;;;11.50;99.90;;;;;;10467565;28;20225;-80
2024/02/03 15:20:01;;;;;;;0.30;0.30;;;11.40;99.70;;;;;;10448882;28;20194;-81
2024/02/03 15:25:04;;;;;;;0.40;0.40;;;11.40;99.90;;;;;;10464892;28;20213;-81
2024/02/03 15:30:09;;;;;;;0.40;0.40;;;11.40;99.80;;;;;;10440321;28;20220;-81
2024/02/03 15:35:12;;;;;;;0.40;0.40;;;11.30;99.60;;;;;;10425551;28;20213;-81
2024/02/03 15:40:14;;;;;;;0.50;0.50;;;11.10;99.70;;;;;;10434748;28;20194;-81
2024/02/03 15:45:18;;;;;;;0.50;0.50;;;11.00;99.90;;;;;;10429539;28;20224;-81
2024/02/03 15:50:21;;;;;;;0.40;0.40;;;10.90;99.90;;;;;;10449231;28;20205;-81
2024/02/03 15:55:23;;;;;;;0.40;0.40;;;10.80;99.90;;;;;;10434639;28;20230;-81
2024/02/03 16:00:27;;;;;;;0.50;0.50;;;10.70;99.90;;;;;;10427567;28;20291;-82
2024/02/03 16:05:29;;;;;;;0.60;0.60;;;10.70;99.90;;;;;;10411847;28;20240;-80
2024/02/03 16:10:32;;;;;;;0.20;0.20;;;10.60;99.90;;;;;;10411494;28;20204;-80
2024/02/03 16:15:36;;;;;;;0.40;0.40;;;10.50;99.90;;;;;;10399856;28;20718;-81
2024/02/03 16:20:39;;;;;;;0.37;0.37;;;10.50;99.90;;;;;;10421718;28;20459;-81
2024/02/03 16:25:41;;;;;;;0.50;0.50;;;10.40;99.90;;;;;;10398945;28;20222;-82
2024/02/03 16:30:45;;;;;;;0.40;0.40;;;10.40;99.90;;;;;;10434449;28;20226;-82
2024/02/03 16:35:47;;;;;;;0.40;0.40;;;10.40;99.90;;;;;;10414986;28;20726;-81
2024/02/03 16:40:50;;;;;;;0.40;0.40;;;10.40;99.90;;;;;;10404532;28;20205;-80
2024/02/03 16:45:54;;;;;;;0.40;0.40;;;10.40;99.90;;;;;;10406566;28;20222;-82
2024/02/03 16:50:57;;;;;;;0.50;0.50;;;10.40;99.90;;;;;;10411771;28;20299;-81
2024/02/03 16:55:59;;;;;;;0.40;0.40;;;10.30;99.90;;;;;;10427981;28;20217;-80
2024/02/03 17:01:03;;;;;;;0.40;0.40;;;10.30;99.90;;;;;;10441073;28;20659;-80
2024/02/03 17:06:06;;;;;;;0.40;0.40;;;10.30;99.90;;;;;;10424331;28;20221;-80
2024/02/03 17:11:08;;;;;;;0.40;0.40;;;10.30;99.90;;;;;;10442227;28;20208;-79
2024/02/03 17:16:12;;;;;;;0.30;0.30;;;10.30;99.90;;;;;;10442016;28;20632;-80
2024/02/03 17:21:15;;;;;;;0.40;0.40;;;10.30;99.90;;;;;;10440658;28;20205;-80
2024/02/03 17:26:17;;;;;;;0.40;0.40;;;10.30;99.90;;;;;;10439831;28;20705;-80
2024/02/03 17:31:22;;;;;;;0.50;0.50;;;10.30;99.90;;;;;;10440988;28;20197;-80
2024/02/03 17:36:24;;;;;;;0.40;0.40;;;10.30;99.90;;;;;;10421281;28;20228;-80
2024/02/03 17:41:27;;;;;;;0.30;0.30;;;10.30;99.90;;;;;;10439184;28;20553;-80
2024/02/03 17:46:31;;;;;;;0.27;0.27;;;10.30;99.90;;;;;;10435009;28;20491;-80
2024/02/03 17:51:34;;;;;;;0.30;0.30;;;10.40;99.90;;;;;;10437158;28;20718;-80
2024/02/03 17:56:37;;;;;;;0.40;0.40;;;10.30;99.90;;;;;;10421086;28;20237;-81
2024/02/03 18:01:41;;;;;;;0.20;0.20;;;10.40;99.90;;;;;;10433924;28;20266;-80
2024/02/03 18:06:43;;;;;;;0.40;0.40;;;10.40;99.90;;;;;;10434621;28;20768;-81
2024/02/03 18:11:46;;;;;;;0.30;0.30;;;10.40;99.90;;;;;;10435720;28;20205;-81
2024/02/03 18:16:50;;;;;;;0.50;0.50;;;10.40;99.90;;;;;;10433235;28;20225;-81
2024/02/03 18:21:52;;;;;;;0.40;0.40;;;10.40;99.90;;;;;;10435285;28;20199;-81
2024/02/03 18:26:55;;;;;;;0.50;0.50;;;10.30;99.90;;;;;;10417729;28;20236;-81
2024/02/03 18:31:59;;;;;;;0.40;0.40;;;10.40;99.90;;;;;;10411416;28;20190;-81
2024/02/03 18:37:01;;;;;;;0.40;0.40;;;10.40;99.90;;;;;;10436648;28;20650;-81
2024/02/03 18:42:04;;;;;;;0.10;0.10;;;10.30;99.90;;;;;;10437974;28;20197;-81
2024/02/03 18:47:07;;;;;;;0.30;0.30;;;10.30;99.90;;;;;;10437791;28;20205;-81
2024/02/03 18:52:10;;;;;;;0.40;0.40;;;10.30;99.90;;;;;;10419794;28;20189;-80
2024/02/03 18:57:12;;;;;;;0.40;0.40;;;10.30;99.90;;;;;;10437669;28;20623;-81
2024/02/03 19:02:16;;;;;;;0.40;0.40;;;10.30;99.90;;;;;;10421212;28;20573;-81
2024/02/03 19:07:19;;;;;;;0.50;0.50;;;10.30;99.90;;;;;;10429457;28;20205;-81
2024/02/03 19:12:21;;;;;;;0.30;0.30;;;10.30;99.90;;;;;;10443021;28;20186;-81
2024/02/03 19:17:25;;;;;;;0.40;0.40;;;10.30;99.90;;;;;;10442840;28;20222;-81
2024/02/03 19:22:28;;;;;;;0.40;0.40;;;10.30;99.90;;;;;;10442927;28;20205;-81
2024/02/03 19:27:30;;;;;;;0.40;0.40;;;10.30;99.90;;;;;;10442130;28;20846;-81
2024/02/03 19:32:34;;;;;;;0.40;0.40;;;10.30;99.90;;;;;;10443473;28;20232;-81
2024/02/03 19:37:36;;;;;;;0.40;0.40;;;10.30;99.90;;;;;;10441822;28;21074;-81
2024/02/03 19:42:41;;;;;;;0.30;0.30;;;10.30;99.90;;;;;;10442222;28;20229;-81
2024/02/03 19:47:47;;;;;;;0.50;0.50;;;10.30;99.90;;;;;;10440813;28;20206;-81
2024/02/03 19:52:49;;;;;;;0.23;0.23;;;10.30;99.90;;;;;;10449292;28;20197;-80
2024/02/03 19:57:51;;;;;;;0.40;0.40;;;10.30;99.90;;;;;;10463704;28;20255;-81
2024/02/03 20:02:55;;;;;;;0.43;0.43;;;10.20;99.90;;;;;;10436845;28;20248;-82
2024/02/03 20:07:58;;;;;;;0.40;0.40;;;10.30;99.90;;;;;;10435740;28;20244;-81
2024/02/03 20:13:01;;;;;;;0.50;0.50;;;10.20;99.90;;;;;;10434880;28;20194;-82
2024/02/03 20:18:06;;;;;;;0.30;0.30;;;10.20;99.90;;;;;;10436368;28;20283;-81
2024/02/03 20:23:08;;;;;;;0.40;0.40;;;10.30;99.90;;;;;;10392452;28;20198;-81
2024/02/03 20:28:11;;;;;;;0.50;0.50;;;10.30;99.90;;;;;;10391903;28;20211;-81
2024/02/03 20:33:15;;;;;;;0.40;0.40;;;10.30;99.90;;;;;;10428236;28;20206;-81
2024/02/03 20:38:17;;;;;;;0.40;0.40;;;10.20;99.90;;;;;;10429426;28;20225;-81
2024/02/03 20:43:20;;;;;;;0.50;0.50;;;10.20;99.90;;;;;;10410683;28;20206;-81
2024/02/03 20:48:24;;;;;;;0.40;0.40;;;10.20;99.90;;;;;;10434495;28;20753;-81
2024/02/03 20:53:26;;;;;;;0.40;0.40;;;10.20;99.90;;;;;;10432281;28;20247;-82
2024/02/03 20:58:29;;;;;;;0.30;0.30;;;10.20;99.90;;;;;;10428716;28;20283;-82
2024/02/03 21:03:32;;;;;;;0.30;0.30;;;10.20;99.90;;;;;;10422115;28;20568;-81
2024/02/03 21:08:35;;;;;;;0.40;0.40;;;10.20;99.90;;;;;;10428555;28;20782;-81
2024/02/03 21:13:39;;;;;;;0.40;0.40;;;10.20;99.90;;;;;;10420664;28;20198;-81
2024/02/03 21:18:42;;;;;;;0.40;0.40;;;10.10;99.90;;;;;;10427856;28;20225;-82
2024/02/03 21:23:45;;;;;;;0.50;0.50;;;10.10;99.90;;;;;;10425269;28;20545;-81
2024/02/03 21:28:47;;;;;;;0.40;0.40;;;10.10;99.90;;;;;;10430432;28;20224;-83
2024/02/03 21:33:51;;;;;;;0.30;0.30;;;10.20;99.90;;;;;;10428080;28;20252;-83
2024/02/03 21:38:54;;;;;;;0.20;0.20;;;10.10;99.90;;;;;;10433545;28;20719;-82
2024/02/03 21:43:57;;;;;;;0.30;0.30;;;10.20;99.90;;;;;;10454394;28;20222;-82
2024/02/03 21:49:01;;;;;;;0.30;0.30;;;10.20;99.90;;;;;;10434294;28;20194;-82
2024/02/03 21:54:04;;;;;;;0.40;0.40;;;10.20;99.90;;;;;;10428513;28;20213;-81
2024/02/03 21:59:06;;;;;;;0.30;0.30;;;10.10;99.90;;;;;;10430085;28;20225;-82
2024/02/03 22:04:10;;;;;;;0.30;0.30;;;10.10;99.90;;;;;;10428263;28;20717;-82
2024/02/03 22:09:15;;;;;;;0.30;0.30;;;10.10;99.90;;;;;;10409716;28;20194;-81
2024/02/03 22:14:18;;;;;;;0.40;0.40;;;10.10;99.90;;;;;;10412422;28;20244;-83
2024/02/03 22:19:22;;;;;;;0.30;0.30;;;10.10;99.90;;;;;;10423465;28;20221;-83
2024/02/03 22:24:25;;;;;;;0.40;0.40;;;10.10;99.90;;;;;;10402981;28;20252;-82
2024/02/03 22:29:27;;;;;;;0.30;0.30;;;10.10;99.90;;;;;;10436672;28;20209;-82
2024/02/03 22:34:32;;;;;;;0.37;0.37;;;10.10;99.90;;;;;;10424917;28;20364;-83
2024/02/03 22:39:34;;;;;;;0.20;0.20;;;10.10;99.90;;;;;;10414047;28;20202;-83
2024/02/03 22:44:36;;;;;;;0.37;0.37;;;10.10;99.90;;;;;;10415650;28;20504;-83
2024/02/03 22:49:40;;;;;;;0.30;0.30;;;10.10;99.90;;;;;;10447989;28;20623;-82
2024/02/03 22:54:42;;;;;;;0.40;0.40;;;10.20;99.90;;;;;;10435383;28;20646;-83
2024/02/03 22:59:45;;;;;;;0.20;0.20;;;10.20;99.90;;;;;;10412441;28;20229;-83
2024/02/03 23:04:48;;;;;;;0.30;0.30;;;10.20;99.90;;;;;;10409379;28;20218;-80
2024/02/03 23:09:51;;;;;;;0.40;0.40;;;10.20;99.90;;;;;;10433493;28;20198;-83
2024/02/03 23:14:53;;;;;;;0.30;0.30;;;10.20;99.90;;;;;;10429063;28;20283;-83
2024/02/03 23:19:58;;;;;;;0.30;0.30;;;10.30;99.90;;;;;;10430579;28;20660;-83
2024/02/03 23:25:00;;;;;;;0.30;0.30;;;10.30;99.90;;;;;;10435294;28;20218;-83
2024/02/03 23:30:06;;;;;;;0.40;0.40;;;10.20;99.90;;;;;;10438389;28;20194;-83
2024/02/03 23:35:10;;;;;;;0.30;0.30;;;10.20;99.90;;;;;;10408613;28;20229;-83
2024/02/03 23:40:13;;;;;;;0.30;0.30;;;10.20;99.90;;;;;;10435326;28;20730;-83
2024/02/03 23:45:16;;;;;;;0.40;0.40;;;10.20;99.90;;;;;;10424343;28;20224;-83
2024/02/03 23:50:19;;;;;;;0.50;0.50;;;10.20;99.90;;;;;;10442067;28;20194;-82
2024/02/03 23:55:23;;;;;;;0.50;0.50;;;10.30;99.90;;;;;;10441733;28;20218;-83
